Syosyun — JD2406 — position and weather

sailwx.info

Track history (hours):
 
Tides and Currents Weather Stations Pressure Air Temp Water Temp Dewpoint Dewpoint Depression Visibility Wind Speed Wind Dir Waves Ship Positions

Syosyun

Last reported at 2017-Dec-11 16:59 UTC. Time now 2017-Dec-13 14:57 UTC.
Position N 34°41' E 135°12'.

Length 74 m; draft 3.2 m.

Type: Cargo ship. MMSI: 431000201.

Date/timePositionNaut miles runAvg speedWind from/ knotsBaromVisibWave heightAir tempDewpointWater temp
2017-Dec-11 16:59N 34°41' E 135°12'0 0.0
2017-Dec-11 16:29N 34°41' E 135°12'0 0.0
2017-Dec-11 15:59N 34°41' E 135°12'0 0.0
2017-Dec-11 15:29N 34°41' E 135°12'0 0.0
2017-Dec-11 14:59N 34°41' E 135°12'0 0.0
2017-Dec-11 14:29N 34°41' E 135°12'0 0.0
2017-Dec-11 13:59N 34°41' E 135°12'0 0.0
2017-Dec-11 13:29N 34°41' E 135°12'0 0.0
2017-Dec-11 12:56N 34°41' E 135°12'0 0.0
2017-Dec-11 12:29N 34°41' E 135°12'0 0.0
2017-Dec-11 11:59N 34°41' E 135°12'0 0.0
2017-Dec-11 11:29N 34°41' E 135°12'0 0.0
2017-Dec-11 10:59N 34°41' E 135°12'0 0.0
2017-Dec-11 10:29N 34°41' E 135°12'0 0.0
2017-Dec-11 09:59N 34°41' E 135°12'0 0.0
2017-Dec-11 09:29N 34°41' E 135°12'0 0.0
2017-Dec-11 08:59N 34°41' E 135°12'0 0.0
2017-Dec-11 08:28N 34°41' E 135°12'0 0.0
2017-Dec-11 07:59N 34°41' E 135°12'0 0.0
2017-Dec-11 07:29N 34°41' E 135°12'0 0.0
2017-Dec-11 06:59N 34°41' E 135°12'0 0.0
2017-Dec-11 06:29N 34°41' E 135°12'0 0.0
2017-Dec-11 05:59N 34°41' E 135°12'0 0.0
2017-Dec-11 05:29N 34°41' E 135°12'0 0.0
2017-Dec-11 04:58N 34°41' E 135°12'0 0.0
2017-Dec-11 04:29N 34°41' E 135°12'0 0.0
2017-Dec-11 03:59N 34°41' E 135°12'0 0.0
2017-Dec-11 03:29N 34°41' E 135°12'0 0.0
2017-Dec-11 02:59N 34°41' E 135°12'0 0.1
2017-Dec-11 02:30N 34°41' E 135°12'3 7.0
2017-Dec-11 02:00N 34°38' E 135°13'5 9.5
2017-Dec-11 01:30N 34°42' E 135°15'0 0.6
2017-Dec-11 00:59N 34°42' E 135°15'0 0.0
2017-Dec-11 00:29N 34°42' E 135°15'0 0.0
2017-Dec-10 23:59N 34°42' E 135°15'0 0.0
2017-Dec-10 23:29N 34°42' E 135°15'0 0.0
2017-Dec-10 22:59N 34°42' E 135°15'0 0.0
2017-Dec-10 22:29N 34°42' E 135°15'0 0.0
2017-Dec-10 21:59N 34°42' E 135°15'0 0.0
2017-Dec-10 21:29N 34°42' E 135°15'0 0.0
2017-Dec-10 20:59N 34°42' E 135°15'0 0.0
2017-Dec-10 20:29N 34°42' E 135°15'0 0.0
2017-Dec-10 19:59N 34°42' E 135°15'0 0.0
2017-Dec-10 19:29N 34°42' E 135°15'0 0.0
2017-Dec-10 18:59N 34°42' E 135°15'0 0.0
2017-Dec-10 18:29N 34°42' E 135°15'0 0.0
2017-Dec-10 17:59N 34°42' E 135°15'0 0.0
2017-Dec-10 17:29N 34°42' E 135°15'0 0.0
2017-Dec-10 16:56N 34°42' E 135°15'0 0.0
2017-Dec-10 16:29N 34°42' E 135°15'0 0.0
2017-Dec-10 15:59N 34°42' E 135°15'0 0.0
2017-Dec-10 15:29N 34°42' E 135°15'0 0.0
2017-Dec-10 14:59N 34°42' E 135°15'0 0.0
2017-Dec-10 14:29N 34°42' E 135°15'0 0.0
2017-Dec-10 14:00N 34°42' E 135°15'0 0.8
2017-Dec-10 13:28N 34°42' E 135°15'0 0.0
2017-Dec-10 12:58N 34°42' E 135°15'0 0.0
2017-Dec-10 12:25N 34°42' E 135°15'0 0.0
2017-Dec-10 11:58N 34°42' E 135°15'0 0.0
2017-Dec-10 11:28N 34°42' E 135°15'0 0.0
2017-Dec-10 10:58N 34°42' E 135°15'0 0.1
2017-Dec-10 10:28N 34°42' E 135°15'0 0.0
2017-Dec-10 09:58N 34°42' E 135°15'0 0.0
2017-Dec-10 09:28N 34°42' E 135°15'0 0.1
2017-Dec-10 08:58N 34°42' E 135°15'0 0.0
2017-Dec-10 08:28N 34°42' E 135°15'0 0.0
2017-Dec-10 07:58N 34°42' E 135°15'0 0.1
2017-Dec-10 07:28N 34°42' E 135°15'0 0.1
2017-Dec-10 06:58N 34°42' E 135°15'0 0.0
2017-Dec-10 06:28N 34°42' E 135°15'0 0.1
2017-Dec-10 06:00N 34°42' E 135°15'4 9.0
2017-Dec-10 05:31N 34°37' E 135°14'611.1
2017-Dec-10 05:01N 34°36' E 135°07'4 8.7
2017-Dec-10 04:31N 34°37' E 135°02'4 7.4
2017-Dec-10 04:00N 34°37' E 134°58'4 8.7
2017-Dec-10 03:30N 34°38' E 134°52'5 9.9
2017-Dec-10 03:00N 34°41' E 134°48'2 0.3
2017-Dec-09 18:54N 34°44' E 134°49'3 7.6
2017-Dec-09 18:30N 34°41' E 134°49'0 0.6
2017-Dec-09 18:00N 34°40' E 134°49'0 0.0
2017-Dec-09 17:30N 34°40' E 134°49'0 0.1
2017-Dec-09 17:00N 34°40' E 134°49'0 0.0
2017-Dec-09 16:30N 34°40' E 134°49'0 0.0
2017-Dec-09 15:57N 34°40' E 134°49'1 3.1
2017-Dec-09 15:30N 34°40' E 134°50'612.4
2017-Dec-09 15:00N 34°38' E 134°57'612.3
2017-Dec-09 14:31N 34°36' E 135°05'612.6
2017-Dec-09 14:00N 34°37' E 135°12'5 9.7
2017-Dec-09 13:31N 34°42' E 135°15'1 1.3
2017-Dec-09 12:58N 34°42' E 135°15'0 0.0
2017-Dec-09 12:28N 34°42' E 135°15'0 0.0
2017-Dec-09 11:55N 34°42' E 135°15'0 0.0
2017-Dec-09 11:28N 34°42' E 135°15'0 0.0
2017-Dec-09 10:58N 34°42' E 135°15'0 0.0
2017-Dec-09 10:28N 34°42' E 135°15'0 0.0
2017-Dec-09 09:58N 34°42' E 135°15'0 0.0
2017-Dec-09 09:28N 34°42' E 135°15'0 0.0
2017-Dec-09 08:58N 34°42' E 135°15'0 0.0
2017-Dec-09 08:28N 34°42' E 135°15'0 0.0
2017-Dec-09 07:58N 34°42' E 135°15'0 0.0
2017-Dec-09 07:28N 34°42' E 135°15'0 0.0
2017-Dec-09 06:58N 34°42' E 135°15'0 0.0
2017-Dec-09 06:28N 34°42' E 135°15'0 0.0
2017-Dec-09 05:58N 34°42' E 135°15'0 0.0
2017-Dec-09 05:28N 34°42' E 135°15'0 0.0
2017-Dec-09 04:58N 34°42' E 135°15'0 0.0
2017-Dec-09 04:28N 34°42' E 135°15'0 0.0
2017-Dec-09 03:58N 34°42' E 135°15'0 0.0
2017-Dec-09 03:28N 34°42' E 135°15'0 0.0
2017-Dec-09 03:00N 34°42' E 135°15'1 1.0
2017-Dec-09 02:29N 34°42' E 135°15'0 0.1
2017-Dec-09 01:56N 34°42' E 135°15'0 0.0
2017-Dec-09 01:26N 34°42' E 135°15'0 0.0
2017-Dec-09 00:59N 34°42' E 135°15'0 0.0
2017-Dec-09 00:29N 34°42' E 135°15'0 0.0
2017-Dec-08 23:59N 34°42' E 135°15'0 0.0
2017-Dec-08 23:29N 34°42' E 135°15'0 0.0
2017-Dec-08 22:59N 34°42' E 135°15'0 0.0
2017-Dec-08 22:29N 34°42' E 135°15'0 0.0
2017-Dec-08 21:59N 34°42' E 135°15'0 0.0
2017-Dec-08 21:26N 34°42' E 135°15'0 0.1
2017-Dec-08 20:59N 34°42' E 135°15'0 0.0
2017-Dec-08 20:29N 34°42' E 135°15'0 0.0
2017-Dec-08 19:59N 34°42' E 135°15'0 0.0
2017-Dec-08 19:29N 34°42' E 135°15'0 0.0
2017-Dec-08 18:56N 34°42' E 135°15'0 0.0
2017-Dec-08 18:26N 34°42' E 135°15'0 0.1
2017-Dec-08 17:59N 34°42' E 135°15'0 0.1
2017-Dec-08 17:30N 34°42' E 135°15'5 9.1
2017-Dec-08 17:00N 34°37' E 135°14'611.2
2017-Dec-08 16:30N 34°35' E 135°07'510.2
2017-Dec-08 16:00N 34°37' E 135°01'5 9.6
2017-Dec-08 15:30N 34°36' E 134°56'510.2
2017-Dec-08 15:00N 34°39' E 134°50'4 1.8
2017-Dec-08 12:29N 34°44' E 134°49'0 0.0
2017-Dec-08 11:41N 34°44' E 134°49'0 0.0
2017-Dec-08 11:23N 34°44' E 134°49'0 0.0
2017-Dec-08 09:41N 34°44' E 134°49'0 0.0
2017-Dec-08 05:29N 34°44' E 134°49'0 0.9
2017-Dec-08 04:57N 34°43' E 134°48'2 3.4
2017-Dec-08 04:27N 34°42' E 134°50'0 0.0
2017-Dec-08 03:57N 34°42' E 134°50'0 0.0
2017-Dec-08 03:27N 34°42' E 134°50'0 0.0
2017-Dec-08 02:57N 34°42' E 134°50'0 0.0
2017-Dec-08 02:27N 34°42' E 134°50'0 0.0
2017-Dec-08 02:00N 34°42' E 134°50'0 0.0
2017-Dec-08 01:27N 34°42' E 134°50'0 0.0
2017-Dec-08 00:57N 34°42' E 134°50'0 0.0
2017-Dec-08 00:27N 34°42' E 134°50'0 0.0
2017-Dec-07 23:57N 34°42' E 134°50'2 5.0
2017-Dec-07 23:30N 34°40' E 134°50'611.9
2017-Dec-07 23:00N 34°37' E 134°57'511.0
2017-Dec-07 22:31N 34°36' E 135°03'612.2
2017-Dec-07 22:00N 34°37' E 135°11'5 9.5
2017-Dec-07 21:30N 34°40' E 135°15'2 3.7
2017-Dec-07 20:58N 34°42' E 135°15'0 0.0
2017-Dec-07 20:28N 34°42' E 135°15'0 0.0
2017-Dec-07 19:58N 34°42' E 135°15'0 0.0
2017-Dec-07 19:28N 34°42' E 135°15'0 0.0
2017-Dec-07 18:55N 34°42' E 135°15'0 0.0
2017-Dec-07 18:28N 34°42' E 135°15'0 0.0
2017-Dec-07 17:58N 34°42' E 135°15'0 0.0
2017-Dec-07 17:28N 34°42' E 135°15'0 0.0
2017-Dec-07 16:58N 34°42' E 135°15'0 0.0
2017-Dec-07 16:28N 34°42' E 135°15'0 0.0
2017-Dec-07 15:58N 34°42' E 135°15'0 0.0
2017-Dec-07 15:28N 34°42' E 135°15'0 0.0
2017-Dec-07 14:58N 34°42' E 135°15'0 0.0
2017-Dec-07 14:28N 34°42' E 135°15'0 0.0
2017-Dec-07 13:58N 34°42' E 135°15'0 0.0
2017-Dec-07 13:28N 34°42' E 135°15'0 0.0
2017-Dec-07 12:58N 34°42' E 135°15'0 0.0
2017-Dec-07 12:28N 34°42' E 135°15'0 0.0
2017-Dec-07 11:58N 34°42' E 135°15'0 0.0
2017-Dec-07 11:28N 34°42' E 135°15'0 0.0
2017-Dec-07 10:58N 34°42' E 135°15'0 0.0
2017-Dec-07 10:28N 34°42' E 135°15'0 0.0
2017-Dec-07 09:58N 34°42' E 135°15'0 0.0
2017-Dec-07 09:28N 34°42' E 135°15'0 1.0
2017-Dec-07 09:00N 34°42' E 135°15'0 0.8
2017-Dec-07 08:29N 34°42' E 135°15'0 0.0
2017-Dec-07 07:59N 34°42' E 135°15'0 0.0
2017-Dec-07 07:29N 34°42' E 135°15'0 0.0
2017-Dec-07 06:59N 34°42' E 135°15'0 0.0
2017-Dec-07 06:29N 34°42' E 135°15'0 0.0
2017-Dec-07 06:00N 34°42' E 135°15'4 8.0
2017-Dec-07 05:30N 34°38' E 135°15'611.1
2017-Dec-07 05:00N 34°36' E 135°09'510.1
2017-Dec-07 04:30N 34°36' E 135°02'5 9.8
2017-Dec-07 04:00N 34°36' E 134°57'510.2
2017-Dec-07 03:30N 34°39' E 134°51'  
2017-Dec-04 10:23N 34°42' E 135°15'0 0.0
2017-Dec-04 09:59N 34°42' E 135°15'0 0.0
2017-Dec-04 09:29N 34°42' E 135°15'0 0.0
2017-Dec-04 08:59N 34°42' E 135°15'0 0.4
2017-Dec-04 08:30N 34°42' E 135°15'0 0.3
2017-Dec-04 08:00N 34°42' E 135°15'0 0.0
2017-Dec-04 07:30N 34°42' E 135°15'0 0.0
2017-Dec-04 07:00N 34°42' E 135°15'0 0.0
2017-Dec-04 06:30N 34°42' E 135°15'0 0.0
2017-Dec-04 06:00N 34°42' E 135°15'0 0.0
2017-Dec-04 05:30N 34°42' E 135°15'0 0.0
2017-Dec-04 05:00N 34°42' E 135°15'0 0.1
2017-Dec-04 04:30N 34°42' E 135°15'0 0.0
2017-Dec-04 04:00N 34°42' E 135°15'0 0.1
2017-Dec-04 03:30N 34°42' E 135°15'0 0.0
2017-Dec-04 03:00N 34°42' E 135°15'0 0.0
2017-Dec-04 02:30N 34°42' E 135°15'3 6.0
2017-Dec-04 02:00N 34°39' E 135°16'510.4
2017-Dec-04 01:30N 34°36' E 135°10'510.6
2017-Dec-04 01:00N 34°35' E 135°04'4 8.1
2017-Dec-04 00:30N 34°37' E 134°59'5 9.4
2017-Dec-04 00:00N 34°37' E 134°54'5 9.9
2017-Dec-03 23:30N 34°40' E 134°49'3 1.2
2017-Dec-03 20:47N 34°44' E 134°49'0 0.0
2017-Dec-03 20:23N 34°44' E 134°49'0 0.0
2017-Dec-03 16:05N 34°44' E 134°49'0 0.0
2017-Dec-03 12:30N 34°44' E 134°49'4 8.3
2017-Dec-03 12:00N 34°40' E 134°50'612.3
2017-Dec-03 11:30N 34°38' E 134°57'713.9
2017-Dec-03 11:00N 34°36' E 135°05'713.1
2017-Dec-03 10:31N 34°37' E 135°13'510.4
2017-Dec-03 10:00N 34°42' E 135°15'0 0.1
2017-Dec-03 09:28N 34°42' E 135°15'0 0.0
2017-Dec-03 08:58N 34°42' E 135°15'0 0.0
2017-Dec-03 08:28N 34°42' E 135°15'0 0.0
2017-Dec-03 07:58N 34°42' E 135°15'0 0.0
2017-Dec-03 07:28N 34°42' E 135°15'0 0.0
2017-Dec-03 06:58N 34°42' E 135°15'0 0.0
2017-Dec-03 06:28N 34°42' E 135°15'0 0.0
2017-Dec-03 05:58N 34°42' E 135°15'0 0.0
2017-Dec-03 05:28N 34°42' E 135°15'0 0.0
2017-Dec-03 04:58N 34°42' E 135°15'0 0.0
2017-Dec-03 04:28N 34°42' E 135°15'0 0.0
2017-Dec-03 03:58N 34°42' E 135°15'0 0.0
2017-Dec-03 03:28N 34°42' E 135°15'0 0.0
2017-Dec-03 02:58N 34°42' E 135°15'0 0.0
2017-Dec-03 02:28N 34°42' E 135°15'0 0.0
2017-Dec-03 01:58N 34°42' E 135°15'0 0.0
2017-Dec-03 01:28N 34°42' E 135°15'0 0.0
2017-Dec-03 00:58N 34°42' E 135°15'0 0.0
2017-Dec-03 00:28N 34°42' E 135°15'0 0.0
2017-Dec-02 23:58N 34°42' E 135°15'0 0.0
2017-Dec-02 23:28N 34°42' E 135°15'0 0.0
2017-Dec-02 22:58N 34°42' E 135°15'0 1.0
2017-Dec-02 22:30N 34°42' E 135°15'0 0.0
2017-Dec-02 22:00N 34°42' E 135°15'0 0.0
2017-Dec-02 21:30N 34°42' E 135°15'0 0.0
2017-Dec-02 21:00N 34°42' E 135°15'0 0.0
2017-Dec-02 20:30N 34°42' E 135°15'0 0.0
2017-Dec-02 20:00N 34°42' E 135°15'0 0.0
2017-Dec-02 19:30N 34°42' E 135°15'0 0.0
2017-Dec-02 19:00N 34°42' E 135°15'0 0.0
2017-Dec-02 18:30N 34°42' E 135°15'0 0.0
2017-Dec-02 18:01N 34°42' E 135°15'0 0.0
2017-Dec-02 17:30N 34°42' E 135°15'0 0.0
2017-Dec-02 17:00N 34°42' E 135°15'0 0.0
2017-Dec-02 16:30N 34°42' E 135°15'0 0.0
2017-Dec-02 16:00N 34°42' E 135°15'0 0.0
2017-Dec-02 15:30N 34°42' E 135°15'2 4.5
2017-Dec-02 15:00N 34°40' E 135°15'5 9.7
2017-Dec-02 14:30N 34°36' E 135°11'611.6
2017-Dec-02 14:01N 34°35' E 135°04'612.7
2017-Dec-02 13:30N 34°36' E 134°57'612.9
2017-Dec-02 13:00N 34°40' E 134°50'4 3.1
2017-Dec-02 11:46N 34°44' E 134°49'0 0.0
2017-Dec-02 11:22N 34°44' E 134°49'0 0.0
2017-Dec-02 07:52N 34°44' E 134°49'0 0.0
2017-Dec-02 07:28N 34°44' E 134°49'0 0.0
2017-Dec-02 04:28N 34°44' E 134°49'0 0.0
2017-Dec-02 03:52N 34°44' E 134°49'0 0.0
2017-Dec-02 03:22N 34°44' E 134°49'0 0.0
2017-Dec-02 02:48N 34°44' E 134°49'2 5.6
2017-Dec-02 02:30N 34°42' E 134°48'510.2
2017-Dec-02 02:00N 34°38' E 134°53'510.9
2017-Dec-02 01:30N 34°38' E 134°59'611.4
2017-Dec-02 01:00N 34°36' E 135°06'611.9
2017-Dec-02 00:30N 34°38' E 135°13'5 9.7
2017-Dec-02 00:01N 34°42' E 135°15'0 0.5
2017-Dec-01 23:29N 34°42' E 135°15'0 0.0
2017-Dec-01 22:59N 34°42' E 135°15'0 0.0
2017-Dec-01 22:29N 34°42' E 135°15'0 0.0
2017-Dec-01 21:59N 34°42' E 135°15'0 0.0
2017-Dec-01 21:29N 34°42' E 135°15'0 0.0
2017-Dec-01 20:59N 34°42' E 135°15'0 0.0
2017-Dec-01 20:29N 34°42' E 135°15'0 0.0
2017-Dec-01 19:59N 34°42' E 135°15'0 0.0
2017-Dec-01 19:29N 34°42' E 135°15'0 0.0
2017-Dec-01 18:59N 34°42' E 135°15'0 0.0
2017-Dec-01 18:29N 34°42' E 135°15'0 0.0
2017-Dec-01 17:59N 34°42' E 135°15'0 0.0
2017-Dec-01 17:29N 34°42' E 135°15'  
Track history (hours):
 
Tides and Currents Weather Stations Pressure Air Temp Water Temp Dewpoint Dewpoint Depression Visibility Wind Speed Wind Dir Waves Ship Positions

Syosyun

Last reported at 2017-Dec-11 16:59 UTC. Time now 2017-Dec-13 14:57 UTC.
Position N 34°41' E 135°12'.

Length 74 m; draft 3.2 m.

Type: Cargo ship. MMSI: 431000201.

Date/timePositionNaut miles runAvg speedWind from/ knotsBaromVisibWave heightAir tempDewpointWater temp
2017-Dec-11 16:59N 34°41' E 135°12'0 0.0
2017-Dec-11 16:29N 34°41' E 135°12'0 0.0
2017-Dec-11 15:59N 34°41' E 135°12'0 0.0
2017-Dec-11 15:29N 34°41' E 135°12'0 0.0
2017-Dec-11 14:59N 34°41' E 135°12'0 0.0
2017-Dec-11 14:29N 34°41' E 135°12'0 0.0
2017-Dec-11 13:59N 34°41' E 135°12'0 0.0
2017-Dec-11 13:29N 34°41' E 135°12'0 0.0
2017-Dec-11 12:56N 34°41' E 135°12'0 0.0
2017-Dec-11 12:29N 34°41' E 135°12'0 0.0
2017-Dec-11 11:59N 34°41' E 135°12'0 0.0
2017-Dec-11 11:29N 34°41' E 135°12'0 0.0
2017-Dec-11 10:59N 34°41' E 135°12'0 0.0
2017-Dec-11 10:29N 34°41' E 135°12'0 0.0
2017-Dec-11 09:59N 34°41' E 135°12'0 0.0
2017-Dec-11 09:29N 34°41' E 135°12'0 0.0
2017-Dec-11 08:59N 34°41' E 135°12'0 0.0
2017-Dec-11 08:28N 34°41' E 135°12'0 0.0
2017-Dec-11 07:59N 34°41' E 135°12'0 0.0
2017-Dec-11 07:29N 34°41' E 135°12'0 0.0
2017-Dec-11 06:59N 34°41' E 135°12'0 0.0
2017-Dec-11 06:29N 34°41' E 135°12'0 0.0
2017-Dec-11 05:59N 34°41' E 135°12'0 0.0
2017-Dec-11 05:29N 34°41' E 135°12'0 0.0
2017-Dec-11 04:58N 34°41' E 135°12'0 0.0
2017-Dec-11 04:29N 34°41' E 135°12'0 0.0
2017-Dec-11 03:59N 34°41' E 135°12'0 0.0
2017-Dec-11 03:29N 34°41' E 135°12'0 0.0
2017-Dec-11 02:59N 34°41' E 135°12'0 0.1
2017-Dec-11 02:30N 34°41' E 135°12'3 7.0
2017-Dec-11 02:00N 34°38' E 135°13'5 9.5
2017-Dec-11 01:30N 34°42' E 135°15'0 0.6
2017-Dec-11 00:59N 34°42' E 135°15'0 0.0
2017-Dec-11 00:29N 34°42' E 135°15'0 0.0
2017-Dec-10 23:59N 34°42' E 135°15'0 0.0
2017-Dec-10 23:29N 34°42' E 135°15'0 0.0
2017-Dec-10 22:59N 34°42' E 135°15'0 0.0
2017-Dec-10 22:29N 34°42' E 135°15'0 0.0
2017-Dec-10 21:59N 34°42' E 135°15'0 0.0
2017-Dec-10 21:29N 34°42' E 135°15'0 0.0
2017-Dec-10 20:59N 34°42' E 135°15'0 0.0
2017-Dec-10 20:29N 34°42' E 135°15'0 0.0
2017-Dec-10 19:59N 34°42' E 135°15'0 0.0
2017-Dec-10 19:29N 34°42' E 135°15'0 0.0
2017-Dec-10 18:59N 34°42' E 135°15'0 0.0
2017-Dec-10 18:29N 34°42' E 135°15'0 0.0
2017-Dec-10 17:59N 34°42' E 135°15'0 0.0
2017-Dec-10 17:29N 34°42' E 135°15'0 0.0
2017-Dec-10 16:56N 34°42' E 135°15'0 0.0
2017-Dec-10 16:29N 34°42' E 135°15'0 0.0
2017-Dec-10 15:59N 34°42' E 135°15'0 0.0
2017-Dec-10 15:29N 34°42' E 135°15'0 0.0
2017-Dec-10 14:59N 34°42' E 135°15'0 0.0
2017-Dec-10 14:29N 34°42' E 135°15'0 0.0
2017-Dec-10 14:00N 34°42' E 135°15'0 0.8
2017-Dec-10 13:28N 34°42' E 135°15'0 0.0
2017-Dec-10 12:58N 34°42' E 135°15'0 0.0
2017-Dec-10 12:25N 34°42' E 135°15'0 0.0
2017-Dec-10 11:58N 34°42' E 135°15'0 0.0
2017-Dec-10 11:28N 34°42' E 135°15'0 0.0
2017-Dec-10 10:58N 34°42' E 135°15'0 0.1
2017-Dec-10 10:28N 34°42' E 135°15'0 0.0
2017-Dec-10 09:58N 34°42' E 135°15'0 0.0
2017-Dec-10 09:28N 34°42' E 135°15'0 0.1
2017-Dec-10 08:58N 34°42' E 135°15'0 0.0
2017-Dec-10 08:28N 34°42' E 135°15'0 0.0
2017-Dec-10 07:58N 34°42' E 135°15'0 0.1
2017-Dec-10 07:28N 34°42' E 135°15'0 0.1
2017-Dec-10 06:58N 34°42' E 135°15'0 0.0
2017-Dec-10 06:28N 34°42' E 135°15'0 0.1
2017-Dec-10 06:00N 34°42' E 135°15'4 9.0
2017-Dec-10 05:31N 34°37' E 135°14'611.1
2017-Dec-10 05:01N 34°36' E 135°07'4 8.7
2017-Dec-10 04:31N 34°37' E 135°02'4 7.4
2017-Dec-10 04:00N 34°37' E 134°58'4 8.7
2017-Dec-10 03:30N 34°38' E 134°52'5 9.9
2017-Dec-10 03:00N 34°41' E 134°48'2 0.3
2017-Dec-09 18:54N 34°44' E 134°49'3 7.6
2017-Dec-09 18:30N 34°41' E 134°49'0 0.6
2017-Dec-09 18:00N 34°40' E 134°49'0 0.0
2017-Dec-09 17:30N 34°40' E 134°49'0 0.1
2017-Dec-09 17:00N 34°40' E 134°49'0 0.0
2017-Dec-09 16:30N 34°40' E 134°49'0 0.0
2017-Dec-09 15:57N 34°40' E 134°49'1 3.1
2017-Dec-09 15:30N 34°40' E 134°50'612.4
2017-Dec-09 15:00N 34°38' E 134°57'612.3
2017-Dec-09 14:31N 34°36' E 135°05'612.6
2017-Dec-09 14:00N 34°37' E 135°12'5 9.7
2017-Dec-09 13:31N 34°42' E 135°15'1 1.3
2017-Dec-09 12:58N 34°42' E 135°15'0 0.0
2017-Dec-09 12:28N 34°42' E 135°15'0 0.0
2017-Dec-09 11:55N 34°42' E 135°15'0 0.0
2017-Dec-09 11:28N 34°42' E 135°15'0 0.0
2017-Dec-09 10:58N 34°42' E 135°15'0 0.0
2017-Dec-09 10:28N 34°42' E 135°15'0 0.0
2017-Dec-09 09:58N 34°42' E 135°15'0 0.0
2017-Dec-09 09:28N 34°42' E 135°15'0 0.0
2017-Dec-09 08:58N 34°42' E 135°15'0 0.0
2017-Dec-09 08:28N 34°42' E 135°15'0 0.0
2017-Dec-09 07:58N 34°42' E 135°15'0 0.0
2017-Dec-09 07:28N 34°42' E 135°15'0 0.0
2017-Dec-09 06:58N 34°42' E 135°15'0 0.0
2017-Dec-09 06:28N 34°42' E 135°15'0 0.0
2017-Dec-09 05:58N 34°42' E 135°15'0 0.0
2017-Dec-09 05:28N 34°42' E 135°15'0 0.0
2017-Dec-09 04:58N 34°42' E 135°15'0 0.0
2017-Dec-09 04:28N 34°42' E 135°15'0 0.0
2017-Dec-09 03:58N 34°42' E 135°15'0 0.0
2017-Dec-09 03:28N 34°42' E 135°15'0 0.0
2017-Dec-09 03:00N 34°42' E 135°15'1 1.0
2017-Dec-09 02:29N 34°42' E 135°15'0 0.1
2017-Dec-09 01:56N 34°42' E 135°15'0 0.0
2017-Dec-09 01:26N 34°42' E 135°15'0 0.0
2017-Dec-09 00:59N 34°42' E 135°15'0 0.0
2017-Dec-09 00:29N 34°42' E 135°15'0 0.0
2017-Dec-08 23:59N 34°42' E 135°15'0 0.0
2017-Dec-08 23:29N 34°42' E 135°15'0 0.0
2017-Dec-08 22:59N 34°42' E 135°15'0 0.0
2017-Dec-08 22:29N 34°42' E 135°15'0 0.0
2017-Dec-08 21:59N 34°42' E 135°15'0 0.0
2017-Dec-08 21:26N 34°42' E 135°15'0 0.1
2017-Dec-08 20:59N 34°42' E 135°15'0 0.0
2017-Dec-08 20:29N 34°42' E 135°15'0 0.0
2017-Dec-08 19:59N 34°42' E 135°15'0 0.0
2017-Dec-08 19:29N 34°42' E 135°15'0 0.0
2017-Dec-08 18:56N 34°42' E 135°15'0 0.0
2017-Dec-08 18:26N 34°42' E 135°15'0 0.1
2017-Dec-08 17:59N 34°42' E 135°15'0 0.1
2017-Dec-08 17:30N 34°42' E 135°15'5 9.1
2017-Dec-08 17:00N 34°37' E 135°14'611.2
2017-Dec-08 16:30N 34°35' E 135°07'510.2
2017-Dec-08 16:00N 34°37' E 135°01'5 9.6
2017-Dec-08 15:30N 34°36' E 134°56'510.2
2017-Dec-08 15:00N 34°39' E 134°50'4 1.8
2017-Dec-08 12:29N 34°44' E 134°49'0 0.0
2017-Dec-08 11:41N 34°44' E 134°49'0 0.0
2017-Dec-08 11:23N 34°44' E 134°49'0 0.0
2017-Dec-08 09:41N 34°44' E 134°49'0 0.0
2017-Dec-08 05:29N 34°44' E 134°49'0 0.9
2017-Dec-08 04:57N 34°43' E 134°48'2 3.4
2017-Dec-08 04:27N 34°42' E 134°50'0 0.0
2017-Dec-08 03:57N 34°42' E 134°50'0 0.0
2017-Dec-08 03:27N 34°42' E 134°50'0 0.0
2017-Dec-08 02:57N 34°42' E 134°50'0 0.0
2017-Dec-08 02:27N 34°42' E 134°50'0 0.0
2017-Dec-08 02:00N 34°42' E 134°50'0 0.0
2017-Dec-08 01:27N 34°42' E 134°50'0 0.0
2017-Dec-08 00:57N 34°42' E 134°50'0 0.0
2017-Dec-08 00:27N 34°42' E 134°50'0 0.0
2017-Dec-07 23:57N 34°42' E 134°50'2 5.0
2017-Dec-07 23:30N 34°40' E 134°50'611.9
2017-Dec-07 23:00N 34°37' E 134°57'511.0
2017-Dec-07 22:31N 34°36' E 135°03'612.2
2017-Dec-07 22:00N 34°37' E 135°11'5 9.5
2017-Dec-07 21:30N 34°40' E 135°15'2 3.7
2017-Dec-07 20:58N 34°42' E 135°15'0 0.0
2017-Dec-07 20:28N 34°42' E 135°15'0 0.0
2017-Dec-07 19:58N 34°42' E 135°15'0 0.0
2017-Dec-07 19:28N 34°42' E 135°15'0 0.0
2017-Dec-07 18:55N 34°42' E 135°15'0 0.0
2017-Dec-07 18:28N 34°42' E 135°15'0 0.0
2017-Dec-07 17:58N 34°42' E 135°15'0 0.0
2017-Dec-07 17:28N 34°42' E 135°15'0 0.0
2017-Dec-07 16:58N 34°42' E 135°15'0 0.0
2017-Dec-07 16:28N 34°42' E 135°15'0 0.0
2017-Dec-07 15:58N 34°42' E 135°15'0 0.0
2017-Dec-07 15:28N 34°42' E 135°15'0 0.0
2017-Dec-07 14:58N 34°42' E 135°15'0 0.0
2017-Dec-07 14:28N 34°42' E 135°15'0 0.0
2017-Dec-07 13:58N 34°42' E 135°15'0 0.0
2017-Dec-07 13:28N 34°42' E 135°15'0 0.0
2017-Dec-07 12:58N 34°42' E 135°15'0 0.0
2017-Dec-07 12:28N 34°42' E 135°15'0 0.0
2017-Dec-07 11:58N 34°42' E 135°15'0 0.0
2017-Dec-07 11:28N 34°42' E 135°15'0 0.0
2017-Dec-07 10:58N 34°42' E 135°15'0 0.0
2017-Dec-07 10:28N 34°42' E 135°15'0 0.0
2017-Dec-07 09:58N 34°42' E 135°15'0 0.0
2017-Dec-07 09:28N 34°42' E 135°15'0 1.0
2017-Dec-07 09:00N 34°42' E 135°15'0 0.8
2017-Dec-07 08:29N 34°42' E 135°15'0 0.0
2017-Dec-07 07:59N 34°42' E 135°15'0 0.0
2017-Dec-07 07:29N 34°42' E 135°15'0 0.0
2017-Dec-07 06:59N 34°42' E 135°15'0 0.0
2017-Dec-07 06:29N 34°42' E 135°15'0 0.0
2017-Dec-07 06:00N 34°42' E 135°15'4 8.0
2017-Dec-07 05:30N 34°38' E 135°15'611.1
2017-Dec-07 05:00N 34°36' E 135°09'510.1
2017-Dec-07 04:30N 34°36' E 135°02'5 9.8
2017-Dec-07 04:00N 34°36' E 134°57'510.2
2017-Dec-07 03:30N 34°39' E 134°51'  
2017-Dec-04 10:23N 34°42' E 135°15'0 0.0
2017-Dec-04 09:59N 34°42' E 135°15'0 0.0
2017-Dec-04 09:29N 34°42' E 135°15'0 0.0
2017-Dec-04 08:59N 34°42' E 135°15'0 0.4
2017-Dec-04 08:30N 34°42' E 135°15'0 0.3
2017-Dec-04 08:00N 34°42' E 135°15'0 0.0
2017-Dec-04 07:30N 34°42' E 135°15'0 0.0
2017-Dec-04 07:00N 34°42' E 135°15'0 0.0
2017-Dec-04 06:30N 34°42' E 135°15'0 0.0
2017-Dec-04 06:00N 34°42' E 135°15'0 0.0
2017-Dec-04 05:30N 34°42' E 135°15'0 0.0
2017-Dec-04 05:00N 34°42' E 135°15'0 0.1
2017-Dec-04 04:30N 34°42' E 135°15'0 0.0
2017-Dec-04 04:00N 34°42' E 135°15'0 0.1
2017-Dec-04 03:30N 34°42' E 135°15'0 0.0
2017-Dec-04 03:00N 34°42' E 135°15'0 0.0
2017-Dec-04 02:30N 34°42' E 135°15'3 6.0
2017-Dec-04 02:00N 34°39' E 135°16'510.4
2017-Dec-04 01:30N 34°36' E 135°10'510.6
2017-Dec-04 01:00N 34°35' E 135°04'4 8.1
2017-Dec-04 00:30N 34°37' E 134°59'5 9.4
2017-Dec-04 00:00N 34°37' E 134°54'5 9.9
2017-Dec-03 23:30N 34°40' E 134°49'3 1.2
2017-Dec-03 20:47N 34°44' E 134°49'0 0.0
2017-Dec-03 20:23N 34°44' E 134°49'0 0.0
2017-Dec-03 16:05N 34°44' E 134°49'0 0.0
2017-Dec-03 12:30N 34°44' E 134°49'4 8.3
2017-Dec-03 12:00N 34°40' E 134°50'612.3
2017-Dec-03 11:30N 34°38' E 134°57'713.9
2017-Dec-03 11:00N 34°36' E 135°05'713.1
2017-Dec-03 10:31N 34°37' E 135°13'510.4
2017-Dec-03 10:00N 34°42' E 135°15'0 0.1
2017-Dec-03 09:28N 34°42' E 135°15'0 0.0
2017-Dec-03 08:58N 34°42' E 135°15'0 0.0
2017-Dec-03 08:28N 34°42' E 135°15'0 0.0
2017-Dec-03 07:58N 34°42' E 135°15'0 0.0
2017-Dec-03 07:28N 34°42' E 135°15'0 0.0
2017-Dec-03 06:58N 34°42' E 135°15'0 0.0
2017-Dec-03 06:28N 34°42' E 135°15'0 0.0
2017-Dec-03 05:58N 34°42' E 135°15'0 0.0
2017-Dec-03 05:28N 34°42' E 135°15'0 0.0
2017-Dec-03 04:58N 34°42' E 135°15'0 0.0
2017-Dec-03 04:28N 34°42' E 135°15'0 0.0
2017-Dec-03 03:58N 34°42' E 135°15'0 0.0
2017-Dec-03 03:28N 34°42' E 135°15'0 0.0
2017-Dec-03 02:58N 34°42' E 135°15'0 0.0
2017-Dec-03 02:28N 34°42' E 135°15'0 0.0
2017-Dec-03 01:58N 34°42' E 135°15'0 0.0
2017-Dec-03 01:28N 34°42' E 135°15'0 0.0
2017-Dec-03 00:58N 34°42' E 135°15'0 0.0
2017-Dec-03 00:28N 34°42' E 135°15'0 0.0
2017-Dec-02 23:58N 34°42' E 135°15'0 0.0
2017-Dec-02 23:28N 34°42' E 135°15'0 0.0
2017-Dec-02 22:58N 34°42' E 135°15'0 1.0
2017-Dec-02 22:30N 34°42' E 135°15'0 0.0
2017-Dec-02 22:00N 34°42' E 135°15'0 0.0
2017-Dec-02 21:30N 34°42' E 135°15'0 0.0
2017-Dec-02 21:00N 34°42' E 135°15'0 0.0
2017-Dec-02 20:30N 34°42' E 135°15'0 0.0
2017-Dec-02 20:00N 34°42' E 135°15'0 0.0
2017-Dec-02 19:30N 34°42' E 135°15'0 0.0
2017-Dec-02 19:00N 34°42' E 135°15'0 0.0
2017-Dec-02 18:30N 34°42' E 135°15'0 0.0
2017-Dec-02 18:01N 34°42' E 135°15'0 0.0
2017-Dec-02 17:30N 34°42' E 135°15'0 0.0
2017-Dec-02 17:00N 34°42' E 135°15'0 0.0
2017-Dec-02 16:30N 34°42' E 135°15'0 0.0
2017-Dec-02 16:00N 34°42' E 135°15'0 0.0
2017-Dec-02 15:30N 34°42' E 135°15'2 4.5
2017-Dec-02 15:00N 34°40' E 135°15'5 9.7
2017-Dec-02 14:30N 34°36' E 135°11'611.6
2017-Dec-02 14:01N 34°35' E 135°04'612.7
2017-Dec-02 13:30N 34°36' E 134°57'612.9
2017-Dec-02 13:00N 34°40' E 134°50'4 3.1
2017-Dec-02 11:46N 34°44' E 134°49'0 0.0
2017-Dec-02 11:22N 34°44' E 134°49'0 0.0
2017-Dec-02 07:52N 34°44' E 134°49'0 0.0
2017-Dec-02 07:28N 34°44' E 134°49'0 0.0
2017-Dec-02 04:28N 34°44' E 134°49'0 0.0
2017-Dec-02 03:52N 34°44' E 134°49'0 0.0
2017-Dec-02 03:22N 34°44' E 134°49'0 0.0
2017-Dec-02 02:48N 34°44' E 134°49'2 5.6
2017-Dec-02 02:30N 34°42' E 134°48'510.2
2017-Dec-02 02:00N 34°38' E 134°53'510.9
2017-Dec-02 01:30N 34°38' E 134°59'611.4
2017-Dec-02 01:00N 34°36' E 135°06'611.9
2017-Dec-02 00:30N 34°38' E 135°13'5 9.7
2017-Dec-02 00:01N 34°42' E 135°15'0 0.5
2017-Dec-01 23:29N 34°42' E 135°15'0 0.0
2017-Dec-01 22:59N 34°42' E 135°15'0 0.0
2017-Dec-01 22:29N 34°42' E 135°15'0 0.0
2017-Dec-01 21:59N 34°42' E 135°15'0 0.0
2017-Dec-01 21:29N 34°42' E 135°15'0 0.0
2017-Dec-01 20:59N 34°42' E 135°15'0 0.0
2017-Dec-01 20:29N 34°42' E 135°15'0 0.0
2017-Dec-01 19:59N 34°42' E 135°15'0 0.0
2017-Dec-01 19:29N 34°42' E 135°15'0 0.0
2017-Dec-01 18:59N 34°42' E 135°15'0 0.0
2017-Dec-01 18:29N 34°42' E 135°15'0 0.0
2017-Dec-01 17:59N 34°42' E 135°15'0 0.0
2017-Dec-01 17:29N 34°42' E 135°15'  

Dump ship's entire track history